ATMO2: Muddy Boggy Creek at Atoka

Data processed at Fri Feb 23 2018 21:53


All information presented herein is the property of the government of the United States of America and may be revised or deleted at any time without prior notice.
Dissemination of this information without the expressed written consent of the Public Affairs Office, Tulsa District U.S. Army Corps of Engineers is strictly prohibited.
These data are gathered electronically and, as presented, have not undergone any form of quality control. These data are not guaranteed to be valid or correct.
Go to home page.
Go to station list.

Downstream station:


Previous Day
Next Day
Current Day
    
SHEF ID:       ATMO2     Muddy Boggy Creek at Atoka, OK
STATION TYPE:  

               PRECIP     STAGE  RIV-FLOW   VOLTAGE
                   in        ft       cfs      volt
              Ccp-Rev   Ccp-Rev   Ccp-Rev   Ccp-Rev
(US/Central)
02/23 00:00      0.00     20.24      1049     12.40
02/23 01:00      0.00     20.08       990     12.50
02/23 02:00      0.00     19.93       937     12.50
02/23 03:00      0.00     19.83       903     12.40
02/23 04:00      0.00     19.74       874     12.40
02/23 05:00      0.00     19.67       851     12.50
02/23 06:00      0.00     19.65       845     12.40
02/23 07:00      0.00     19.67       851     12.40
02/23 08:00      0.02     19.72       867     12.50
02/23 09:00      0.05     19.83       903     12.50
02/23 10:00      0.21     19.99       958     12.50
02/23 11:00      0.39     20.32      1080     12.50
02/23 12:00      0.41     20.89      1322     12.60
02/23 13:00      0.07     21.84      1830     13.10
02/23 14:00      0.00     22.86      2555     13.10
02/23 15:00      0.00     23.67      3296     13.00
02/23 16:00      0.00     24.14      3806     12.80
02/23 17:00      0.04     24.29      3888     12.60
02/23 18:00      0.02     24.01      3659     12.50
02/23 19:00      0.02     23.80      3431     12.50
02/23 20:00      0.02     23.69      3317     12.50
02/23 21:00      ----      ----      ----      ----
02/23 22:00      ----      ----      ----      ----
02/23 23:00      ----      ----      ----      ----